sensor_id;sensor_type;location;lat;lon;timestamp;P1;durP1;ratioP1;P2;durP2;ratioP2
24715;SDS011;12822;50.124;8.678;2022-12-10T00:01:56;38.42;;;20.10;;
24715;SDS011;12822;50.124;8.678;2022-12-10T00:04:22;37.35;;;20.65;;
24715;SDS011;12822;50.124;8.678;2022-12-10T00:06:48;37.35;;;20.50;;
24715;SDS011;12822;50.124;8.678;2022-12-10T00:09:14;43.50;;;22.58;;
24715;SDS011;12822;50.124;8.678;2022-12-10T00:11:41;36.60;;;20.27;;
24715;SDS011;12822;50.124;8.678;2022-12-10T00:14:07;38.42;;;19.92;;
24715;SDS011;12822;50.124;8.678;2022-12-10T00:16:33;43.45;;;20.95;;
24715;SDS011;12822;50.124;8.678;2022-12-10T00:18:59;39.60;;;19.92;;
24715;SDS011;12822;50.124;8.678;2022-12-10T00:21:26;36.03;;;20.00;;
24715;SDS011;12822;50.124;8.678;2022-12-10T00:23:53;38.03;;;18.80;;
24715;SDS011;12822;50.124;8.678;2022-12-10T00:26:21;37.28;;;20.70;;
24715;SDS011;12822;50.124;8.678;2022-12-10T00:28:47;38.13;;;20.48;;
24715;SDS011;12822;50.124;8.678;2022-12-10T00:31:15;35.20;;;19.23;;
24715;SDS011;12822;50.124;8.678;2022-12-10T00:33:41;34.92;;;18.70;;
24715;SDS011;12822;50.124;8.678;2022-12-10T00:36:09;37.95;;;20.25;;
24715;SDS011;12822;50.124;8.678;2022-12-10T00:38:36;34.03;;;18.80;;
24715;SDS011;12822;50.124;8.678;2022-12-10T00:41:02;33.90;;;18.45;;
24715;SDS011;12822;50.124;8.678;2022-12-10T00:43:28;32.20;;;18.52;;
24715;SDS011;12822;50.124;8.678;2022-12-10T00:45:54;37.42;;;20.05;;
24715;SDS011;12822;50.124;8.678;2022-12-10T00:48:21;33.15;;;19.63;;
24715;SDS011;12822;50.124;8.678;2022-12-10T00:50:57;37.53;;;21.30;;
24715;SDS011;12822;50.124;8.678;2022-12-10T00:53:24;39.20;;;21.73;;
24715;SDS011;12822;50.124;8.678;2022-12-10T00:55:50;39.33;;;20.08;;
24715;SDS011;12822;50.124;8.678;2022-12-10T00:58:16;38.95;;;20.25;;
24715;SDS011;12822;50.124;8.678;2022-12-10T01:00:42;44.40;;;21.10;;
24715;SDS011;12822;50.124;8.678;2022-12-10T01:03:08;37.05;;;19.42;;
24715;SDS011;12822;50.124;8.678;2022-12-10T01:05:34;38.28;;;20.02;;
24715;SDS011;12822;50.124;8.678;2022-12-10T01:08:00;36.28;;;19.98;;
24715;SDS011;12822;50.124;8.678;2022-12-10T01:10:26;36.58;;;19.85;;
24715;SDS011;12822;50.124;8.678;2022-12-10T01:12:52;36.85;;;18.80;;
24715;SDS011;12822;50.124;8.678;2022-12-10T01:15:18;32.72;;;18.40;;
24715;SDS011;12822;50.124;8.678;2022-12-10T01:17:44;33.08;;;19.52;;
24715;SDS011;12822;50.124;8.678;2022-12-10T01:20:09;34.17;;;18.52;;
24715;SDS011;12822;50.124;8.678;2022-12-10T01:22:37;29.70;;;17.65;;
24715;SDS011;12822;50.124;8.678;2022-12-10T01:25:03;29.98;;;17.08;;
24715;SDS011;12822;50.124;8.678;2022-12-10T01:27:29;34.45;;;18.42;;
24715;SDS011;12822;50.124;8.678;2022-12-10T01:29:55;29.70;;;17.08;;
24715;SDS011;12822;50.124;8.678;2022-12-10T01:32:21;31.98;;;17.92;;
24715;SDS011;12822;50.124;8.678;2022-12-10T01:34:47;31.95;;;17.05;;
24715;SDS011;12822;50.124;8.678;2022-12-10T01:37:15;36.50;;;18.08;;
24715;SDS011;12822;50.124;8.678;2022-12-10T01:39:41;30.40;;;17.35;;
24715;SDS011;12822;50.124;8.678;2022-12-10T01:42:11;31.75;;;17.90;;
24715;SDS011;12822;50.124;8.678;2022-12-10T01:47:07;32.55;;;17.45;;
24715;SDS011;12822;50.124;8.678;2022-12-10T01:49:34;34.03;;;18.83;;
24715;SDS011;12822;50.124;8.678;2022-12-10T01:52:00;31.40;;;18.00;;
24715;SDS011;12822;50.124;8.678;2022-12-10T01:54:31;29.73;;;16.83;;
24715;SDS011;12822;50.124;8.678;2022-12-10T01:57:17;31.40;;;17.48;;
24715;SDS011;12822;50.124;8.678;2022-12-10T01:59:45;31.95;;;17.38;;
24715;SDS011;12822;50.124;8.678;2022-12-10T02:02:21;30.60;;;16.85;;
24715;SDS011;12822;50.124;8.678;2022-12-10T02:09:52;28.75;;;16.58;;
24715;SDS011;12822;50.124;8.678;2022-12-10T02:12:23;30.92;;;16.60;;
24715;SDS011;12822;50.124;8.678;2022-12-10T02:14:53;30.58;;;17.40;;
24715;SDS011;12822;50.124;8.678;2022-12-10T02:18:03;30.17;;;16.30;;
24715;SDS011;12822;50.124;8.678;2022-12-10T02:20:17;27.13;;;15.23;;
24715;SDS011;12822;50.124;8.678;2022-12-10T02:22:46;27.90;;;16.00;;
24715;SDS011;12822;50.124;8.678;2022-12-10T02:25:14;28.23;;;16.23;;
24715;SDS011;12822;50.124;8.678;2022-12-10T02:27:49;31.50;;;16.27;;
24715;SDS011;12822;50.124;8.678;2022-12-10T02:30:17;28.60;;;16.23;;
24715;SDS011;12822;50.124;8.678;2022-12-10T02:32:43;28.80;;;15.93;;
24715;SDS011;12822;50.124;8.678;2022-12-10T02:35:20;27.95;;;15.98;;
24715;SDS011;12822;50.124;8.678;2022-12-10T02:40:22;28.60;;;15.25;;
24715;SDS011;12822;50.124;8.678;2022-12-10T02:42:50;30.05;;;16.00;;
24715;SDS011;12822;50.124;8.678;2022-12-10T02:45:17;30.85;;;17.60;;
24715;SDS011;12822;50.124;8.678;2022-12-10T02:47:43;28.88;;;16.48;;
24715;SDS011;12822;50.124;8.678;2022-12-10T02:50:09;30.60;;;16.88;;
24715;SDS011;12822;50.124;8.678;2022-12-10T02:52:37;29.52;;;16.58;;
24715;SDS011;12822;50.124;8.678;2022-12-10T02:55:03;31.63;;;16.15;;
24715;SDS011;12822;50.124;8.678;2022-12-10T02:57:36;29.92;;;16.45;;
24715;SDS011;12822;50.124;8.678;2022-12-10T03:07:35;29.17;;;16.33;;
24715;SDS011;12822;50.124;8.678;2022-12-10T03:10:11;31.55;;;17.38;;
24715;SDS011;12822;50.124;8.678;2022-12-10T03:12:44;28.25;;;16.58;;
24715;SDS011;12822;50.124;8.678;2022-12-10T03:15:12;30.65;;;17.30;;
24715;SDS011;12822;50.124;8.678;2022-12-10T03:17:38;31.48;;;17.50;;
24715;SDS011;12822;50.124;8.678;2022-12-10T03:20:07;28.48;;;16.40;;
24715;SDS011;12822;50.124;8.678;2022-12-10T03:22:33;28.98;;;17.48;;
24715;SDS011;12822;50.124;8.678;2022-12-10T03:25:00;30.08;;;17.38;;
24715;SDS011;12822;50.124;8.678;2022-12-10T03:27:27;35.13;;;17.75;;
24715;SDS011;12822;50.124;8.678;2022-12-10T03:29:56;31.00;;;17.20;;
24715;SDS011;12822;50.124;8.678;2022-12-10T03:32:23;32.13;;;17.52;;
24715;SDS011;12822;50.124;8.678;2022-12-10T03:34:51;31.48;;;17.08;;
24715;SDS011;12822;50.124;8.678;2022-12-10T03:37:19;32.05;;;17.60;;
24715;SDS011;12822;50.124;8.678;2022-12-10T03:39:45;31.15;;;16.83;;
24715;SDS011;12822;50.124;8.678;2022-12-10T03:42:11;34.95;;;17.58;;
24715;SDS011;12822;50.124;8.678;2022-12-10T03:44:37;32.78;;;17.38;;
24715;SDS011;12822;50.124;8.678;2022-12-10T03:47:06;29.45;;;17.20;;
24715;SDS011;12822;50.124;8.678;2022-12-10T03:49:33;31.95;;;17.02;;
24715;SDS011;12822;50.124;8.678;2022-12-10T03:51:59;30.90;;;17.55;;
24715;SDS011;12822;50.124;8.678;2022-12-10T03:54:25;33.70;;;18.08;;
24715;SDS011;12822;50.124;8.678;2022-12-10T03:56:51;31.60;;;17.30;;
24715;SDS011;12822;50.124;8.678;2022-12-10T03:59:17;35.40;;;18.23;;
24715;SDS011;12822;50.124;8.678;2022-12-10T04:01:43;33.33;;;18.00;;
24715;SDS011;12822;50.124;8.678;2022-12-10T04:04:09;33.05;;;17.55;;
24715;SDS011;12822;50.124;8.678;2022-12-10T04:06:37;31.35;;;16.65;;
24715;SDS011;12822;50.124;8.678;2022-12-10T04:09:03;36.20;;;18.67;;
24715;SDS011;12822;50.124;8.678;2022-12-10T04:11:29;31.60;;;16.92;;
24715;SDS011;12822;50.124;8.678;2022-12-10T04:13:55;33.08;;;18.35;;
24715;SDS011;12822;50.124;8.678;2022-12-10T04:16:40;31.40;;;17.77;;
24715;SDS011;12822;50.124;8.678;2022-12-10T04:19:07;32.95;;;18.02;;
24715;SDS011;12822;50.124;8.678;2022-12-10T04:21:34;32.55;;;18.10;;
24715;SDS011;12822;50.124;8.678;2022-12-10T04:24:21;31.67;;;17.88;;
24715;SDS011;12822;50.124;8.678;2022-12-10T04:27:08;31.42;;;17.77;;
24715;SDS011;12822;50.124;8.678;2022-12-10T04:29:35;34.92;;;17.77;;
24715;SDS011;12822;50.124;8.678;2022-12-10T04:32:01;30.98;;;16.90;;
24715;SDS011;12822;50.124;8.678;2022-12-10T04:34:27;32.83;;;16.65;;
24715;SDS011;12822;50.124;8.678;2022-12-10T04:36:53;32.70;;;18.10;;
24715;SDS011;12822;50.124;8.678;2022-12-10T04:39:19;31.33;;;17.60;;
24715;SDS011;12822;50.124;8.678;2022-12-10T04:41:46;35.25;;;18.75;;
24715;SDS011;12822;50.124;8.678;2022-12-10T04:44:12;34.15;;;19.10;;
24715;SDS011;12822;50.124;8.678;2022-12-10T04:46:38;33.45;;;18.15;;
24715;SDS011;12822;50.124;8.678;2022-12-10T04:49:05;35.45;;;19.30;;
24715;SDS011;12822;50.124;8.678;2022-12-10T04:51:31;34.80;;;18.35;;
24715;SDS011;12822;50.124;8.678;2022-12-10T04:53:57;31.10;;;17.65;;
24715;SDS011;12822;50.124;8.678;2022-12-10T04:56:23;32.88;;;17.42;;
24715;SDS011;12822;50.124;8.678;2022-12-10T04:58:49;34.50;;;18.48;;
24715;SDS011;12822;50.124;8.678;2022-12-10T05:01:15;34.95;;;17.73;;
24715;SDS011;12822;50.124;8.678;2022-12-10T05:03:43;33.65;;;17.55;;
24715;SDS011;12822;50.124;8.678;2022-12-10T05:06:10;33.35;;;17.95;;
24715;SDS011;12822;50.124;8.678;2022-12-10T05:08:37;33.85;;;17.30;;
24715;SDS011;12822;50.124;8.678;2022-12-10T05:11:08;39.17;;;18.42;;
24715;SDS011;12822;50.124;8.678;2022-12-10T05:16:02;31.02;;;17.27;;
24715;SDS011;12822;50.124;8.678;2022-12-10T05:18:28;42.95;;;17.50;;
24715;SDS011;12822;50.124;8.678;2022-12-10T05:20:54;34.33;;;18.92;;
24715;SDS011;12822;50.124;8.678;2022-12-10T05:23:20;36.00;;;18.65;;
24715;SDS011;12822;50.124;8.678;2022-12-10T05:28:23;33.42;;;18.50;;
24715;SDS011;12822;50.124;8.678;2022-12-10T05:30:49;34.17;;;18.75;;
24715;SDS011;12822;50.124;8.678;2022-12-10T05:33:16;35.22;;;18.52;;
24715;SDS011;12822;50.124;8.678;2022-12-10T05:35:42;35.95;;;19.80;;
24715;SDS011;12822;50.124;8.678;2022-12-10T05:38:08;34.67;;;19.67;;
24715;SDS011;12822;50.124;8.678;2022-12-10T05:40:38;36.42;;;19.60;;
24715;SDS011;12822;50.124;8.678;2022-12-10T05:43:04;40.83;;;21.25;;
24715;SDS011;12822;50.124;8.678;2022-12-10T05:45:33;37.80;;;19.65;;
24715;SDS011;12822;50.124;8.678;2022-12-10T05:47:59;37.42;;;20.13;;
24715;SDS011;12822;50.124;8.678;2022-12-10T05:50:25;36.90;;;19.40;;
24715;SDS011;12822;50.124;8.678;2022-12-10T05:52:51;35.33;;;19.33;;
24715;SDS011;12822;50.124;8.678;2022-12-10T05:55:17;35.40;;;19.30;;
24715;SDS011;12822;50.124;8.678;2022-12-10T05:57:43;33.92;;;18.60;;
24715;SDS011;12822;50.124;8.678;2022-12-10T06:00:10;34.05;;;19.55;;
24715;SDS011;12822;50.124;8.678;2022-12-10T06:02:36;35.65;;;18.83;;
24715;SDS011;12822;50.124;8.678;2022-12-10T06:05:02;38.65;;;19.63;;
24715;SDS011;12822;50.124;8.678;2022-12-10T06:07:29;34.15;;;18.55;;
24715;SDS011;12822;50.124;8.678;2022-12-10T06:09:55;34.72;;;18.42;;
24715;SDS011;12822;50.124;8.678;2022-12-10T06:12:21;36.10;;;18.48;;
24715;SDS011;12822;50.124;8.678;2022-12-10T06:14:47;34.25;;;18.00;;
24715;SDS011;12822;50.124;8.678;2022-12-10T06:17:13;36.10;;;18.65;;
24715;SDS011;12822;50.124;8.678;2022-12-10T06:19:39;32.58;;;17.38;;
24715;SDS011;12822;50.124;8.678;2022-12-10T06:22:05;34.08;;;19.15;;
24715;SDS011;12822;50.124;8.678;2022-12-10T06:24:31;32.60;;;18.13;;
24715;SDS011;12822;50.124;8.678;2022-12-10T06:26:57;33.63;;;18.70;;
24715;SDS011;12822;50.124;8.678;2022-12-10T06:29:23;38.40;;;20.70;;
24715;SDS011;12822;50.124;8.678;2022-12-10T06:31:49;34.08;;;18.85;;
24715;SDS011;12822;50.124;8.678;2022-12-10T06:34:15;36.67;;;19.77;;
24715;SDS011;12822;50.124;8.678;2022-12-10T06:36:41;37.15;;;19.30;;
24715;SDS011;12822;50.124;8.678;2022-12-10T06:39:07;33.35;;;17.98;;
24715;SDS011;12822;50.124;8.678;2022-12-10T06:41:33;33.05;;;18.15;;
24715;SDS011;12822;50.124;8.678;2022-12-10T06:43:59;31.35;;;17.90;;
24715;SDS011;12822;50.124;8.678;2022-12-10T06:46:25;31.08;;;17.65;;
24715;SDS011;12822;50.124;8.678;2022-12-10T06:48:55;34.28;;;18.42;;
24715;SDS011;12822;50.124;8.678;2022-12-10T06:51:21;34.50;;;18.08;;
24715;SDS011;12822;50.124;8.678;2022-12-10T06:53:47;33.80;;;18.63;;
24715;SDS011;12822;50.124;8.678;2022-12-10T06:56:17;32.38;;;18.30;;
24715;SDS011;12822;50.124;8.678;2022-12-10T06:58:43;32.45;;;18.60;;
24715;SDS011;12822;50.124;8.678;2022-12-10T07:01:20;32.38;;;16.58;;
24715;SDS011;12822;50.124;8.678;2022-12-10T07:03:50;30.25;;;17.45;;
24715;SDS011;12822;50.124;8.678;2022-12-10T07:06:16;30.92;;;17.27;;
24715;SDS011;12822;50.124;8.678;2022-12-10T07:08:42;30.55;;;16.45;;
24715;SDS011;12822;50.124;8.678;2022-12-10T07:11:09;32.53;;;18.00;;
24715;SDS011;12822;50.124;8.678;2022-12-10T07:13:35;30.83;;;18.35;;
24715;SDS011;12822;50.124;8.678;2022-12-10T07:16:01;33.70;;;17.48;;
24715;SDS011;12822;50.124;8.678;2022-12-10T07:18:27;31.70;;;17.48;;
24715;SDS011;12822;50.124;8.678;2022-12-10T07:20:54;31.50;;;17.27;;
24715;SDS011;12822;50.124;8.678;2022-12-10T07:23:20;32.85;;;17.58;;
24715;SDS011;12822;50.124;8.678;2022-12-10T07:25:46;32.33;;;17.00;;
24715;SDS011;12822;50.124;8.678;2022-12-10T07:28:12;30.65;;;16.50;;
24715;SDS011;12822;50.124;8.678;2022-12-10T07:30:38;28.13;;;16.05;;
24715;SDS011;12822;50.124;8.678;2022-12-10T07:33:04;30.27;;;16.85;;
24715;SDS011;12822;50.124;8.678;2022-12-10T07:35:32;26.52;;;15.60;;
24715;SDS011;12822;50.124;8.678;2022-12-10T07:37:58;28.20;;;16.65;;
24715;SDS011;12822;50.124;8.678;2022-12-10T07:40:24;31.40;;;17.20;;
24715;SDS011;12822;50.124;8.678;2022-12-10T07:42:50;31.88;;;16.33;;
24715;SDS011;12822;50.124;8.678;2022-12-10T07:45:16;31.15;;;17.15;;
24715;SDS011;12822;50.124;8.678;2022-12-10T07:47:42;28.98;;;16.67;;
24715;SDS011;12822;50.124;8.678;2022-12-10T07:50:11;29.50;;;17.50;;
24715;SDS011;12822;50.124;8.678;2022-12-10T07:52:37;34.65;;;16.60;;
24715;SDS011;12822;50.124;8.678;2022-12-10T07:55:05;28.98;;;15.98;;
24715;SDS011;12822;50.124;8.678;2022-12-10T07:57:32;32.72;;;17.08;;
24715;SDS011;12822;50.124;8.678;2022-12-10T08:00:03;28.80;;;15.50;;
24715;SDS011;12822;50.124;8.678;2022-12-10T08:02:29;30.02;;;16.27;;
24715;SDS011;12822;50.124;8.678;2022-12-10T08:04:55;29.65;;;16.05;;
24715;SDS011;12822;50.124;8.678;2022-12-10T08:07:21;27.48;;;15.73;;
24715;SDS011;12822;50.124;8.678;2022-12-10T08:09:47;24.65;;;14.88;;
24715;SDS011;12822;50.124;8.678;2022-12-10T08:12:13;25.65;;;15.63;;
24715;SDS011;12822;50.124;8.678;2022-12-10T08:14:39;25.48;;;15.57;;
24715;SDS011;12822;50.124;8.678;2022-12-10T08:17:05;29.58;;;15.65;;
24715;SDS011;12822;50.124;8.678;2022-12-10T08:19:31;25.73;;;14.98;;
24715;SDS011;12822;50.124;8.678;2022-12-10T08:21:57;27.45;;;15.45;;
24715;SDS011;12822;50.124;8.678;2022-12-10T08:24:23;23.48;;;14.60;;
24715;SDS011;12822;50.124;8.678;2022-12-10T08:26:49;23.70;;;15.15;;
24715;SDS011;12822;50.124;8.678;2022-12-10T08:29:15;24.67;;;15.07;;
24715;SDS011;12822;50.124;8.678;2022-12-10T08:31:41;22.63;;;14.45;;
24715;SDS011;12822;50.124;8.678;2022-12-10T08:34:11;29.92;;;15.82;;
24715;SDS011;12822;50.124;8.678;2022-12-10T08:36:37;23.65;;;15.15;;
24715;SDS011;12822;50.124;8.678;2022-12-10T08:39:03;25.83;;;15.15;;
24715;SDS011;12822;50.124;8.678;2022-12-10T08:41:29;27.63;;;14.57;;
24715;SDS011;12822;50.124;8.678;2022-12-10T08:43:55;22.00;;;13.40;;
24715;SDS011;12822;50.124;8.678;2022-12-10T08:46:21;23.58;;;15.52;;
24715;SDS011;12822;50.124;8.678;2022-12-10T08:48:49;24.63;;;14.27;;
24715;SDS011;12822;50.124;8.678;2022-12-10T08:51:16;27.60;;;15.88;;
24715;SDS011;12822;50.124;8.678;2022-12-10T08:53:43;29.55;;;15.70;;
24715;SDS011;12822;50.124;8.678;2022-12-10T08:56:09;27.33;;;15.73;;
24715;SDS011;12822;50.124;8.678;2022-12-10T08:58:38;25.42;;;15.40;;
24715;SDS011;12822;50.124;8.678;2022-12-10T09:01:05;24.65;;;14.60;;
24715;SDS011;12822;50.124;8.678;2022-12-10T09:03:31;23.58;;;15.00;;
24715;SDS011;12822;50.124;8.678;2022-12-10T09:06:00;25.05;;;15.85;;
24715;SDS011;12822;50.124;8.678;2022-12-10T09:08:26;20.75;;;13.32;;
24715;SDS011;12822;50.124;8.678;2022-12-10T09:10:52;23.77;;;13.98;;
24715;SDS011;12822;50.124;8.678;2022-12-10T09:13:18;23.50;;;14.20;;
24715;SDS011;12822;50.124;8.678;2022-12-10T09:15:51;25.63;;;13.63;;
24715;SDS011;12822;50.124;8.678;2022-12-10T09:18:18;21.75;;;13.48;;
24715;SDS011;12822;50.124;8.678;2022-12-10T09:20:44;22.23;;;13.52;;
24715;SDS011;12822;50.124;8.678;2022-12-10T09:23:10;22.88;;;13.85;;
24715;SDS011;12822;50.124;8.678;2022-12-10T09:25:36;24.65;;;13.18;;
24715;SDS011;12822;50.124;8.678;2022-12-10T09:28:02;21.75;;;13.68;;
24715;SDS011;12822;50.124;8.678;2022-12-10T09:30:28;19.35;;;13.27;;
24715;SDS011;12822;50.124;8.678;2022-12-10T09:32:54;22.73;;;12.95;;
24715;SDS011;12822;50.124;8.678;2022-12-10T09:35:20;17.58;;;11.90;;
24715;SDS011;12822;50.124;8.678;2022-12-10T09:37:46;21.67;;;12.75;;
24715;SDS011;12822;50.124;8.678;2022-12-10T09:40:20;19.60;;;13.52;;
24715;SDS011;12822;50.124;8.678;2022-12-10T09:45:17;17.42;;;12.23;;
24715;SDS011;12822;50.124;8.678;2022-12-10T09:50:19;19.27;;;12.05;;
24715;SDS011;12822;50.124;8.678;2022-12-10T09:52:46;20.75;;;12.07;;
24715;SDS011;12822;50.124;8.678;2022-12-10T09:55:14;21.15;;;12.88;;
24715;SDS011;12822;50.124;8.678;2022-12-10T09:57:41;20.83;;;12.70;;
24715;SDS011;12822;50.124;8.678;2022-12-10T10:02:46;19.40;;;12.70;;
24715;SDS011;12822;50.124;8.678;2022-12-10T10:05:23;21.40;;;12.77;;
24715;SDS011;12822;50.124;8.678;2022-12-10T10:07:51;23.52;;;14.05;;
24715;SDS011;12822;50.124;8.678;2022-12-10T10:12:43;22.30;;;13.65;;
24715;SDS011;12822;50.124;8.678;2022-12-10T10:15:12;26.92;;;13.48;;
24715;SDS011;12822;50.124;8.678;2022-12-10T10:17:39;22.52;;;13.43;;
24715;SDS011;12822;50.124;8.678;2022-12-10T10:20:07;19.25;;;12.82;;
24715;SDS011;12822;50.124;8.678;2022-12-10T10:22:33;20.60;;;13.20;;
24715;SDS011;12822;50.124;8.678;2022-12-10T10:25:02;20.98;;;12.85;;
24715;SDS011;12822;50.124;8.678;2022-12-10T10:27:29;20.73;;;13.70;;
24715;SDS011;12822;50.124;8.678;2022-12-10T10:29:57;21.63;;;12.77;;
24715;SDS011;12822;50.124;8.678;2022-12-10T10:35:00;20.23;;;12.63;;
24715;SDS011;12822;50.124;8.678;2022-12-10T10:37:45;20.73;;;13.13;;
24715;SDS011;12822;50.124;8.678;2022-12-10T10:40:25;23.85;;;13.93;;
24715;SDS011;12822;50.124;8.678;2022-12-10T10:42:55;22.80;;;14.20;;
24715;SDS011;12822;50.124;8.678;2022-12-10T10:45:38;23.50;;;14.95;;
24715;SDS011;12822;50.124;8.678;2022-12-10T10:48:15;23.63;;;13.95;;
24715;SDS011;12822;50.124;8.678;2022-12-10T10:50:45;21.92;;;14.07;;
24715;SDS011;12822;50.124;8.678;2022-12-10T10:55:47;24.17;;;15.02;;
24715;SDS011;12822;50.124;8.678;2022-12-10T10:58:17;23.40;;;14.75;;
24715;SDS011;12822;50.124;8.678;2022-12-10T11:00:52;22.53;;;13.50;;
24715;SDS011;12822;50.124;8.678;2022-12-10T11:03:19;23.08;;;14.30;;
24715;SDS011;12822;50.124;8.678;2022-12-10T11:05:46;25.90;;;15.75;;
24715;SDS011;12822;50.124;8.678;2022-12-10T11:08:13;22.73;;;14.52;;
24715;SDS011;12822;50.124;8.678;2022-12-10T11:10:50;25.92;;;15.52;;
24715;SDS011;12822;50.124;8.678;2022-12-10T11:13:22;22.05;;;13.68;;
24715;SDS011;12822;50.124;8.678;2022-12-10T11:23:41;20.63;;;13.40;;
24715;SDS011;12822;50.124;8.678;2022-12-10T11:26:30;21.98;;;13.63;;
24715;SDS011;12822;50.124;8.678;2022-12-10T11:31:29;19.88;;;12.48;;
24715;SDS011;12822;50.124;8.678;2022-12-10T11:34:02;19.95;;;13.45;;
24715;SDS011;12822;50.124;8.678;2022-12-10T11:39:17;20.95;;;13.80;;
24715;SDS011;12822;50.124;8.678;2022-12-10T11:47:04;20.13;;;13.32;;
24715;SDS011;12822;50.124;8.678;2022-12-10T12:08:22;17.35;;;11.38;;
24715;SDS011;12822;50.124;8.678;2022-12-10T12:10:35;17.38;;;11.60;;
24715;SDS011;12822;50.124;8.678;2022-12-10T12:15:32;17.83;;;11.50;;
24715;SDS011;12822;50.124;8.678;2022-12-10T12:18:02;13.70;;;11.02;;
24715;SDS011;12822;50.124;8.678;2022-12-10T12:20:43;16.20;;;11.40;;
24715;SDS011;12822;50.124;8.678;2022-12-10T12:23:14;14.48;;;10.63;;
24715;SDS011;12822;50.124;8.678;2022-12-10T12:25:46;15.98;;;11.55;;
24715;SDS011;12822;50.124;8.678;2022-12-10T12:30:38;13.65;;;11.15;;
24715;SDS011;12822;50.124;8.678;2022-12-10T12:35:44;14.40;;;10.80;;
24715;SDS011;12822;50.124;8.678;2022-12-10T12:41:04;13.88;;;10.88;;
24715;SDS011;12822;50.124;8.678;2022-12-10T12:43:37;13.70;;;10.45;;
24715;SDS011;12822;50.124;8.678;2022-12-10T12:46:16;13.10;;;10.27;;
24715;SDS011;12822;50.124;8.678;2022-12-10T12:48:52;15.02;;;11.40;;
24715;SDS011;12822;50.124;8.678;2022-12-10T12:51:22;14.80;;;10.73;;
24715;SDS011;12822;50.124;8.678;2022-12-10T12:53:50;13.25;;;10.45;;
24715;SDS011;12822;50.124;8.678;2022-12-10T12:59:04;17.52;;;10.82;;
24715;SDS011;12822;50.124;8.678;2022-12-10T13:03:58;15.07;;;10.70;;
24715;SDS011;12822;50.124;8.678;2022-12-10T13:06:28;15.30;;;10.38;;
24715;SDS011;12822;50.124;8.678;2022-12-10T13:32:19;13.82;;;8.68;;
24715;SDS011;12822;50.124;8.678;2022-12-10T13:34:45;12.32;;;9.32;;
24715;SDS011;12822;50.124;8.678;2022-12-10T13:39:52;13.68;;;9.25;;
24715;SDS011;12822;50.124;8.678;2022-12-10T13:42:22;12.27;;;9.13;;
24715;SDS011;12822;50.124;8.678;2022-12-10T13:47:48;13.88;;;9.85;;
24715;SDS011;12822;50.124;8.678;2022-12-10T13:50:20;11.55;;;8.98;;
24715;SDS011;12822;50.124;8.678;2022-12-10T13:57:55;11.63;;;8.32;;
24715;SDS011;12822;50.124;8.678;2022-12-10T14:00:23;13.82;;;9.52;;
24715;SDS011;12822;50.124;8.678;2022-12-10T14:03:13;12.27;;;9.40;;
24715;SDS011;12822;50.124;8.678;2022-12-10T14:05:53;16.13;;;10.65;;
24715;SDS011;12822;50.124;8.678;2022-12-10T14:08:23;13.02;;;9.60;;
24715;SDS011;12822;50.124;8.678;2022-12-10T14:10:51;13.68;;;9.90;;
24715;SDS011;12822;50.124;8.678;2022-12-10T14:13:18;16.17;;;10.43;;
24715;SDS011;12822;50.124;8.678;2022-12-10T14:15:52;14.65;;;9.55;;
24715;SDS011;12822;50.124;8.678;2022-12-10T14:18:19;13.13;;;9.07;;
24715;SDS011;12822;50.124;8.678;2022-12-10T14:20:46;16.00;;;9.40;;
24715;SDS011;12822;50.124;8.678;2022-12-10T14:26:10;15.82;;;9.88;;
24715;SDS011;12822;50.124;8.678;2022-12-10T14:28:41;14.85;;;10.05;;
24715;SDS011;12822;50.124;8.678;2022-12-10T14:31:10;13.68;;;9.30;;
24715;SDS011;12822;50.124;8.678;2022-12-10T14:33:38;9.32;;;6.63;;
24715;SDS011;12822;50.124;8.678;2022-12-10T14:36:04;16.67;;;9.90;;
24715;SDS011;12822;50.124;8.678;2022-12-10T14:38:31;14.57;;;9.55;;
24715;SDS011;12822;50.124;8.678;2022-12-10T14:40:58;14.48;;;9.63;;
24715;SDS011;12822;50.124;8.678;2022-12-10T14:43:27;14.73;;;9.10;;
24715;SDS011;12822;50.124;8.678;2022-12-10T14:45:59;15.82;;;10.68;;
24715;SDS011;12822;50.124;8.678;2022-12-10T14:48:26;17.65;;;9.85;;
24715;SDS011;12822;50.124;8.678;2022-12-10T14:50:52;15.80;;;9.95;;
24715;SDS011;12822;50.124;8.678;2022-12-10T14:53:22;17.17;;;10.75;;
24715;SDS011;12822;50.124;8.678;2022-12-10T14:55:49;17.23;;;9.63;;
24715;SDS011;12822;50.124;8.678;2022-12-10T14:58:26;17.15;;;11.27;;
24715;SDS011;12822;50.124;8.678;2022-12-10T15:00:52;16.75;;;11.02;;
24715;SDS011;12822;50.124;8.678;2022-12-10T15:03:29;16.90;;;11.10;;
24715;SDS011;12822;50.124;8.678;2022-12-10T15:05:58;17.95;;;11.13;;
24715;SDS011;12822;50.124;8.678;2022-12-10T15:08:25;14.80;;;10.18;;
24715;SDS011;12822;50.124;8.678;2022-12-10T15:10:54;16.58;;;11.15;;
24715;SDS011;12822;50.124;8.678;2022-12-10T15:13:22;18.90;;;10.52;;
24715;SDS011;12822;50.124;8.678;2022-12-10T15:15:50;15.88;;;10.80;;
24715;SDS011;12822;50.124;8.678;2022-12-10T15:18:18;18.33;;;11.63;;
24715;SDS011;12822;50.124;8.678;2022-12-10T15:25:47;16.73;;;11.05;;
24715;SDS011;12822;50.124;8.678;2022-12-10T15:28:49;18.23;;;11.95;;
24715;SDS011;12822;50.124;8.678;2022-12-10T15:31:12;18.95;;;11.98;;
24715;SDS011;12822;50.124;8.678;2022-12-10T15:33:45;20.48;;;12.40;;
24715;SDS011;12822;50.124;8.678;2022-12-10T15:38:45;18.90;;;11.60;;
24715;SDS011;12822;50.124;8.678;2022-12-10T15:43:51;23.50;;;12.90;;
24715;SDS011;12822;50.124;8.678;2022-12-10T15:46:20;20.42;;;12.63;;
24715;SDS011;12822;50.124;8.678;2022-12-10T15:48:46;23.00;;;13.02;;
24715;SDS011;12822;50.124;8.678;2022-12-10T15:51:12;21.40;;;13.55;;
24715;SDS011;12822;50.124;8.678;2022-12-10T15:53:38;19.95;;;12.40;;
24715;SDS011;12822;50.124;8.678;2022-12-10T15:56:04;21.80;;;12.77;;
24715;SDS011;12822;50.124;8.678;2022-12-10T15:58:31;20.27;;;12.40;;
24715;SDS011;12822;50.124;8.678;2022-12-10T16:00:57;20.35;;;12.70;;
24715;SDS011;12822;50.124;8.678;2022-12-10T16:03:23;23.95;;;11.63;;
24715;SDS011;12822;50.124;8.678;2022-12-10T16:05:51;21.73;;;11.52;;
24715;SDS011;12822;50.124;8.678;2022-12-10T16:10:44;17.58;;;10.75;;
24715;SDS011;12822;50.124;8.678;2022-12-10T16:13:13;18.25;;;11.57;;
24715;SDS011;12822;50.124;8.678;2022-12-10T16:15:43;18.60;;;11.15;;
24715;SDS011;12822;50.124;8.678;2022-12-10T16:18:11;18.33;;;11.73;;
24715;SDS011;12822;50.124;8.678;2022-12-10T16:20:38;20.13;;;12.15;;
24715;SDS011;12822;50.124;8.678;2022-12-10T16:23:04;20.10;;;12.18;;
24715;SDS011;12822;50.124;8.678;2022-12-10T16:25:33;19.90;;;12.32;;
24715;SDS011;12822;50.124;8.678;2022-12-10T16:28:00;21.58;;;12.07;;
24715;SDS011;12822;50.124;8.678;2022-12-10T16:32:58;24.85;;;13.27;;
24715;SDS011;12822;50.124;8.678;2022-12-10T16:35:24;20.00;;;12.50;;
24715;SDS011;12822;50.124;8.678;2022-12-10T16:37:51;20.38;;;11.93;;
24715;SDS011;12822;50.124;8.678;2022-12-10T16:40:20;20.23;;;11.30;;
24715;SDS011;12822;50.124;8.678;2022-12-10T16:42:46;21.13;;;12.68;;
24715;SDS011;12822;50.124;8.678;2022-12-10T16:45:14;22.30;;;12.52;;
24715;SDS011;12822;50.124;8.678;2022-12-10T16:47:40;23.52;;;12.80;;
24715;SDS011;12822;50.124;8.678;2022-12-10T16:50:06;22.88;;;13.25;;
24715;SDS011;12822;50.124;8.678;2022-12-10T16:52:32;21.48;;;12.70;;